sensor_id;sensor_type;location;lat;lon;timestamp;pressure;altitude;pressure_sealevel;temperature;humidity
59103;BME280;43999;51.660;5.616;2023-04-30T00:00:09;102124.69;;;7.94;100.00
59103;BME280;43999;51.660;5.616;2023-04-30T00:02:37;102122.91;;;7.94;100.00
59103;BME280;43999;51.660;5.616;2023-04-30T00:05:05;102128.19;;;7.93;100.00
59103;BME280;43999;51.660;5.616;2023-04-30T00:07:33;102127.38;;;7.90;100.00
59103;BME280;43999;51.660;5.616;2023-04-30T00:10:01;102121.31;;;7.88;100.00
59103;BME280;43999;51.660;5.616;2023-04-30T00:12:29;102126.56;;;7.88;100.00
59103;BME280;43999;51.660;5.616;2023-04-30T00:14:56;102123.97;;;7.87;100.00
59103;BME280;43999;51.660;5.616;2023-04-30T00:17:23;102117.09;;;7.83;100.00
59103;BME280;43999;51.660;5.616;2023-04-30T00:19:51;102115.41;;;7.80;100.00
59103;BME280;43999;51.660;5.616;2023-04-30T00:22:19;102118.91;;;7.79;100.00
59103;BME280;43999;51.660;5.616;2023-04-30T00:24:46;102122.44;;;7.77;100.00
59103;BME280;43999;51.660;5.616;2023-04-30T00:27:14;102123.38;;;7.72;100.00
59103;BME280;43999;51.660;5.616;2023-04-30T00:29:41;102134.69;;;7.73;100.00
59103;BME280;43999;51.660;5.616;2023-04-30T00:32:09;102130.41;;;7.70;100.00
59103;BME280;43999;51.660;5.616;2023-04-30T00:34:37;102126.97;;;7.68;100.00
59103;BME280;43999;51.660;5.616;2023-04-30T00:37:04;102130.50;;;7.66;100.00
59103;BME280;43999;51.660;5.616;2023-04-30T00:39:31;102134.06;;;7.62;100.00
59103;BME280;43999;51.660;5.616;2023-04-30T00:41:59;102125.41;;;7.60;100.00
59103;BME280;43999;51.660;5.616;2023-04-30T00:44:26;102126.31;;;7.57;100.00
59103;BME280;43999;51.660;5.616;2023-04-30T00:46:54;102118.63;;;7.51;100.00
59103;BME280;43999;51.660;5.616;2023-04-30T00:49:21;102131.66;;;7.51;100.00
59103;BME280;43999;51.660;5.616;2023-04-30T00:51:50;102130.00;;;7.48;100.00
59103;BME280;43999;51.660;5.616;2023-04-30T00:54:19;102136.97;;;7.46;100.00
59103;BME280;43999;51.660;5.616;2023-04-30T00:56:47;102133.56;;;7.43;100.00
59103;BME280;43999;51.660;5.616;2023-04-30T00:59:15;102132.75;;;7.41;100.00
59103;BME280;43999;51.660;5.616;2023-04-30T01:01:43;102131.91;;;7.39;100.00
59103;BME280;43999;51.660;5.616;2023-04-30T01:04:11;102125.06;;;7.34;100.00
59103;BME280;43999;51.660;5.616;2023-04-30T01:06:38;102128.56;;;7.32;100.00
59103;BME280;43999;51.660;5.616;2023-04-30T01:09:06;102123.44;;;7.27;100.00
59103;BME280;43999;51.660;5.616;2023-04-30T01:15:42;102125.28;;;7.22;100.00
59103;BME280;43999;51.660;5.616;2023-04-30T01:18:30;102134.91;;;7.18;100.00
59103;BME280;43999;51.660;5.616;2023-04-30T01:21:07;102131.50;;;7.15;100.00
59103;BME280;43999;51.660;5.616;2023-04-30T01:23:56;102128.06;;;7.13;100.00
59103;BME280;43999;51.660;5.616;2023-04-30T01:27:12;102133.41;;;7.07;100.00
59103;BME280;43999;51.660;5.616;2023-04-30T01:29:52;102125.66;;;7.02;100.00
59103;BME280;43999;51.660;5.616;2023-04-30T01:32:23;102131.78;;;6.99;100.00
59103;BME280;43999;51.660;5.616;2023-04-30T01:34:50;102129.25;;;6.95;100.00
59103;BME280;43999;51.660;5.616;2023-04-30T01:40:24;102137.22;;;6.87;100.00
59103;BME280;43999;51.660;5.616;2023-04-30T01:47:03;102130.41;;;6.78;100.00
59103;BME280;43999;51.660;5.616;2023-04-30T01:50:23;102122.63;;;6.75;100.00
59103;BME280;43999;51.660;5.616;2023-04-30T01:53:20;102126.22;;;6.71;100.00
59103;BME280;43999;51.660;5.616;2023-04-30T01:56:03;102128.88;;;6.68;100.00
59103;BME280;43999;51.660;5.616;2023-04-30T01:58:37;102138.41;;;6.68;100.00
59103;BME280;43999;51.660;5.616;2023-04-30T02:01:06;102134.13;;;6.65;100.00
59103;BME280;43999;51.660;5.616;2023-04-30T02:03:33;102130.63;;;6.64;100.00
59103;BME280;43999;51.660;5.616;2023-04-30T02:06:01;102132.41;;;6.62;100.00
59103;BME280;43999;51.660;5.616;2023-04-30T02:08:30;102134.22;;;6.59;100.00
59103;BME280;43999;51.660;5.616;2023-04-30T02:10:57;102132.47;;;6.59;100.00
59103;BME280;43999;51.660;5.616;2023-04-30T02:13:24;102129.91;;;6.56;100.00
59103;BME280;43999;51.660;5.616;2023-04-30T02:15:52;102128.19;;;6.57;100.00
59103;BME280;43999;51.660;5.616;2023-04-30T02:18:21;102128.22;;;6.55;100.00
59103;BME280;43999;51.660;5.616;2023-04-30T02:20:48;102136.06;;;6.54;100.00
59103;BME280;43999;51.660;5.616;2023-04-30T02:23:16;102136.06;;;6.52;100.00
59103;BME280;43999;51.660;5.616;2023-04-30T02:25:43;102132.66;;;6.47;100.00
59103;BME280;43999;51.660;5.616;2023-04-30T02:28:14;102127.44;;;6.49;100.00
59103;BME280;43999;51.660;5.616;2023-04-30T02:30:41;102136.16;;;6.48;100.00
59103;BME280;43999;51.660;5.616;2023-04-30T02:33:08;102129.31;;;6.40;100.00
59103;BME280;43999;51.660;5.616;2023-04-30T02:35:40;102132.72;;;6.44;100.00
59103;BME280;43999;51.660;5.616;2023-04-30T02:38:07;102131.06;;;6.40;100.00
59103;BME280;43999;51.660;5.616;2023-04-30T02:40:35;102134.53;;;6.40;100.00
59103;BME280;43999;51.660;5.616;2023-04-30T02:43:03;102130.22;;;6.38;100.00
59103;BME280;43999;51.660;5.616;2023-04-30T02:45:32;102137.16;;;6.37;100.00
59103;BME280;43999;51.660;5.616;2023-04-30T02:47:59;102121.59;;;6.34;100.00
59103;BME280;43999;51.660;5.616;2023-04-30T02:50:28;102120.78;;;6.32;100.00
59103;BME280;43999;51.660;5.616;2023-04-30T02:52:55;102123.41;;;6.31;100.00
59103;BME280;43999;51.660;5.616;2023-04-30T02:55:22;102125.13;;;6.30;100.00
59103;BME280;43999;51.660;5.616;2023-04-30T02:57:49;102127.75;;;6.27;100.00
59103;BME280;43999;51.660;5.616;2023-04-30T03:00:17;102131.25;;;6.27;100.00
59103;BME280;43999;51.660;5.616;2023-04-30T03:02:44;102132.16;;;6.25;100.00
59103;BME280;43999;51.660;5.616;2023-04-30T03:05:13;102122.66;;;6.21;100.00
59103;BME280;43999;51.660;5.616;2023-04-30T03:07:41;102125.25;;;6.21;100.00
59103;BME280;43999;51.660;5.616;2023-04-30T03:10:09;102133.09;;;6.19;100.00
59103;BME280;43999;51.660;5.616;2023-04-30T03:12:36;102128.81;;;6.17;100.00
59103;BME280;43999;51.660;5.616;2023-04-30T03:15:05;102127.09;;;6.14;100.00
59103;BME280;43999;51.660;5.616;2023-04-30T03:17:32;102124.56;;;6.09;100.00
59103;BME280;43999;51.660;5.616;2023-04-30T03:20:00;102134.97;;;6.09;100.00
59103;BME280;43999;51.660;5.616;2023-04-30T03:22:27;102127.22;;;6.06;100.00
59103;BME280;43999;51.660;5.616;2023-04-30T03:24:54;102122.91;;;6.02;100.00
59103;BME280;43999;51.660;5.616;2023-04-30T03:27:22;102123.78;;;6.04;100.00
59103;BME280;43999;51.660;5.616;2023-04-30T03:29:49;102133.34;;;6.02;100.00
59103;BME280;43999;51.660;5.616;2023-04-30T03:32:17;102133.38;;;5.99;100.00
59103;BME280;43999;51.660;5.616;2023-04-30T03:34:44;102127.31;;;5.99;100.00
59103;BME280;43999;51.660;5.616;2023-04-30T03:37:12;102133.38;;;5.96;100.00
59103;BME280;43999;51.660;5.616;2023-04-30T03:39:39;102127.34;;;5.94;100.00
59103;BME280;43999;51.660;5.616;2023-04-30T03:42:06;102137.78;;;5.92;100.00
59103;BME280;43999;51.660;5.616;2023-04-30T03:44:34;102140.34;;;5.94;100.00
59103;BME280;43999;51.660;5.616;2023-04-30T03:47:01;102138.66;;;5.91;100.00
59103;BME280;43999;51.660;5.616;2023-04-30T03:49:29;102137.00;;;5.87;100.00
59103;BME280;43999;51.660;5.616;2023-04-30T03:52:00;102140.44;;;5.88;100.00
59103;BME280;43999;51.660;5.616;2023-04-30T03:54:27;102137.00;;;5.86;100.00
59103;BME280;43999;51.660;5.616;2023-04-30T03:56:55;102133.53;;;5.84;100.00
59103;BME280;43999;51.660;5.616;2023-04-30T03:59:23;102140.53;;;5.80;100.00
59103;BME280;43999;51.660;5.616;2023-04-30T04:01:51;102130.19;;;5.75;100.00
59103;BME280;43999;51.660;5.616;2023-04-30T04:04:18;102125.88;;;5.73;100.00
59103;BME280;43999;51.660;5.616;2023-04-30T04:06:46;102130.22;;;5.74;100.00
59103;BME280;43999;51.660;5.616;2023-04-30T04:09:14;102138.91;;;5.71;100.00
59103;BME280;43999;51.660;5.616;2023-04-30T04:11:41;102131.16;;;5.67;100.00
59103;BME280;43999;51.660;5.616;2023-04-30T04:14:09;102135.50;;;5.68;100.00
59103;BME280;43999;51.660;5.616;2023-04-30T04:16:36;102132.91;;;5.66;100.00
59103;BME280;43999;51.660;5.616;2023-04-30T04:19:04;102132.03;;;5.67;100.00
59103;BME280;43999;51.660;5.616;2023-04-30T04:21:32;102132.91;;;5.66;100.00
59103;BME280;43999;51.660;5.616;2023-04-30T04:24:04;102133.78;;;5.65;100.00
59103;BME280;43999;51.660;5.616;2023-04-30T04:26:36;102136.38;;;5.65;100.00
59103;BME280;43999;51.660;5.616;2023-04-30T04:29:04;102142.50;;;5.64;100.00
59103;BME280;43999;51.660;5.616;2023-04-30T04:31:31;102132.09;;;5.63;100.00
59103;BME280;43999;51.660;5.616;2023-04-30T04:34:02;102129.47;;;5.66;100.00
59103;BME280;43999;51.660;5.616;2023-04-30T04:36:31;102140.59;;;5.77;100.00
59103;BME280;43999;51.660;5.616;2023-04-30T04:39:00;102142.13;;;5.92;100.00
59103;BME280;43999;51.660;5.616;2023-04-30T04:41:29;102145.41;;;6.08;100.00
59103;BME280;43999;51.660;5.616;2023-04-30T04:44:02;102150.38;;;6.25;100.00
59103;BME280;43999;51.660;5.616;2023-04-30T04:46:31;102145.00;;;6.36;100.00
59103;BME280;43999;51.660;5.616;2023-04-30T04:48:59;102145.72;;;6.45;100.00
59103;BME280;43999;51.660;5.616;2023-04-30T04:51:26;102144.75;;;6.53;100.00
59103;BME280;43999;51.660;5.616;2023-04-30T04:53:54;102147.28;;;6.57;100.00
59103;BME280;43999;51.660;5.616;2023-04-30T04:56:21;102149.00;;;6.58;100.00
59103;BME280;43999;51.660;5.616;2023-04-30T04:58:48;102146.31;;;6.61;100.00
59103;BME280;43999;51.660;5.616;2023-04-30T05:01:16;102158.44;;;6.64;100.00
59103;BME280;43999;51.660;5.616;2023-04-30T05:03:45;102147.09;;;6.68;100.00
59103;BME280;43999;51.660;5.616;2023-04-30T05:06:13;102153.94;;;6.74;100.00
59103;BME280;43999;51.660;5.616;2023-04-30T05:08:41;102153.78;;;6.81;100.00
59103;BME280;43999;51.660;5.616;2023-04-30T05:11:10;102155.50;;;6.84;100.00
59103;BME280;43999;51.660;5.616;2023-04-30T05:13:41;102155.44;;;6.87;100.00
59103;BME280;43999;51.660;5.616;2023-04-30T05:16:08;102161.41;;;6.94;100.00
59103;BME280;43999;51.660;5.616;2023-04-30T05:18:35;102164.72;;;7.04;100.00
59103;BME280;43999;51.660;5.616;2023-04-30T05:21:03;102162.91;;;7.07;100.00
59103;BME280;43999;51.660;5.616;2023-04-30T05:23:30;102158.50;;;7.11;100.00
59103;BME280;43999;51.660;5.616;2023-04-30T05:25:58;102149.75;;;7.15;100.00
59103;BME280;43999;51.660;5.616;2023-04-30T05:28:25;102155.63;;;7.25;100.00
59103;BME280;43999;51.660;5.616;2023-04-30T05:30:52;102163.34;;;7.31;100.00
59103;BME280;43999;51.660;5.616;2023-04-30T05:33:21;102156.28;;;7.38;100.00
59103;BME280;43999;51.660;5.616;2023-04-30T05:35:48;102166.53;;;7.47;100.00
59103;BME280;43999;51.660;5.616;2023-04-30T05:38:15;102162.09;;;7.52;100.00
59103;BME280;43999;51.660;5.616;2023-04-30T05:40:43;102157.59;;;7.59;100.00
59103;BME280;43999;51.660;5.616;2023-04-30T05:43:10;102155.75;;;7.65;100.00
59103;BME280;43999;51.660;5.616;2023-04-30T05:45:38;102150.34;;;7.75;100.00
59103;BME280;43999;51.660;5.616;2023-04-30T05:48:05;102153.78;;;7.75;100.00
59103;BME280;43999;51.660;5.616;2023-04-30T05:50:32;102154.53;;;7.80;100.00
59103;BME280;43999;51.660;5.616;2023-04-30T05:53:00;102157.13;;;7.82;100.00
59103;BME280;43999;51.660;5.616;2023-04-30T05:55:27;102146.72;;;7.80;100.00
59103;BME280;43999;51.660;5.616;2023-04-30T05:57:55;102153.53;;;7.87;100.00
59103;BME280;43999;51.660;5.616;2023-04-30T06:00:24;102152.47;;;7.95;100.00
59103;BME280;43999;51.660;5.616;2023-04-30T06:02:51;102151.53;;;7.99;100.00
59103;BME280;43999;51.660;5.616;2023-04-30T06:05:19;102158.34;;;8.06;100.00
59103;BME280;43999;51.660;5.616;2023-04-30T06:07:47;102153.81;;;8.14;100.00
59103;BME280;43999;51.660;5.616;2023-04-30T06:10:14;102148.19;;;8.31;100.00
59103;BME280;43999;51.660;5.616;2023-04-30T06:12:41;102153.97;;;8.46;100.00
59103;BME280;43999;51.660;5.616;2023-04-30T06:15:09;102149.38;;;8.57;100.00
59103;BME280;43999;51.660;5.616;2023-04-30T06:17:38;102151.41;;;8.80;100.00
59103;BME280;43999;51.660;5.616;2023-04-30T06:20:08;102159.66;;;8.97;100.00
59103;BME280;43999;51.660;5.616;2023-04-30T06:22:35;102154.13;;;9.10;100.00
59103;BME280;43999;51.660;5.616;2023-04-30T06:25:03;102152.22;;;9.15;100.00
59103;BME280;43999;51.660;5.616;2023-04-30T06:27:31;102147.75;;;9.20;100.00
59103;BME280;43999;51.660;5.616;2023-04-30T06:30:00;102151.97;;;9.24;100.00
59103;BME280;43999;51.660;5.616;2023-04-30T06:32:27;102159.81;;;9.24;100.00
59103;BME280;43999;51.660;5.616;2023-04-30T06:34:54;102151.81;;;9.30;100.00
59103;BME280;43999;51.660;5.616;2023-04-30T06:37:22;102157.63;;;9.40;100.00
59103;BME280;43999;51.660;5.616;2023-04-30T06:39:49;102148.06;;;9.41;100.00
59103;BME280;43999;51.660;5.616;2023-04-30T06:42:17;102153.88;;;9.50;100.00
59103;BME280;43999;51.660;5.616;2023-04-30T06:44:45;102156.91;;;9.66;100.00
59103;BME280;43999;51.660;5.616;2023-04-30T06:47:13;102177.78;;;9.99;100.00
59103;BME280;43999;51.660;5.616;2023-04-30T06:49:41;102171.53;;;10.32;100.00
59103;BME280;43999;51.660;5.616;2023-04-30T06:52:08;102171.84;;;10.51;100.00
59103;BME280;43999;51.660;5.616;2023-04-30T06:54:35;102167.00;;;10.65;100.00
59103;BME280;43999;51.660;5.616;2023-04-30T06:57:03;102169.72;;;10.62;100.00
59103;BME280;43999;51.660;5.616;2023-04-30T06:59:30;102171.88;;;10.76;100.00
59103;BME280;43999;51.660;5.616;2023-04-30T07:01:57;102158.47;;;10.85;100.00
59103;BME280;43999;51.660;5.616;2023-04-30T07:04:25;102162.81;;;10.86;100.00
59103;BME280;43999;51.660;5.616;2023-04-30T07:06:53;102165.53;;;10.83;100.00
59103;BME280;43999;51.660;5.616;2023-04-30T07:09:21;102172.31;;;10.89;100.00
59103;BME280;43999;51.660;5.616;2023-04-30T07:11:48;102161.78;;;10.90;100.00
59103;BME280;43999;51.660;5.616;2023-04-30T07:14:17;102159.81;;;10.97;100.00
59103;BME280;43999;51.660;5.616;2023-04-30T07:16:44;102168.38;;;11.02;100.00
59103;BME280;43999;51.660;5.616;2023-04-30T07:19:12;102164.75;;;11.06;100.00
59103;BME280;43999;51.660;5.616;2023-04-30T07:21:39;102163.41;;;11.20;100.00
59103;BME280;43999;51.660;5.616;2023-04-30T07:24:07;102160.59;;;11.24;100.00
59103;BME280;43999;51.660;5.616;2023-04-30T07:26:34;102163.63;;;11.39;100.00
59103;BME280;43999;51.660;5.616;2023-04-30T07:29:02;102162.59;;;11.66;100.00
59103;BME280;43999;51.660;5.616;2023-04-30T07:31:30;102159.47;;;12.04;100.00
59103;BME280;43999;51.660;5.616;2023-04-30T07:33:58;102159.94;;;12.36;100.00
59103;BME280;43999;51.660;5.616;2023-04-30T07:36:26;102169.84;;;12.51;100.00
59103;BME280;43999;51.660;5.616;2023-04-30T07:38:53;102155.00;;;12.50;100.00
59103;BME280;43999;51.660;5.616;2023-04-30T07:41:20;102161.88;;;12.53;100.00
59103;BME280;43999;51.660;5.616;2023-04-30T07:43:48;102168.88;;;12.74;100.00
59103;BME280;43999;51.660;5.616;2023-04-30T07:46:15;102156.88;;;12.89;100.00
59103;BME280;43999;51.660;5.616;2023-04-30T07:48:43;102157.38;;;12.98;100.00
59103;BME280;43999;51.660;5.616;2023-04-30T07:51:10;102163.13;;;13.07;100.00
59103;BME280;43999;51.660;5.616;2023-04-30T07:53:39;102160.09;;;13.17;100.00
59103;BME280;43999;51.660;5.616;2023-04-30T07:56:06;102160.75;;;13.22;100.00
59103;BME280;43999;51.660;5.616;2023-04-30T07:58:35;102162.56;;;13.20;100.00
59103;BME280;43999;51.660;5.616;2023-04-30T08:01:02;102162.72;;;13.17;100.00
59103;BME280;43999;51.660;5.616;2023-04-30T08:03:31;102166.47;;;13.11;100.00
59103;BME280;43999;51.660;5.616;2023-04-30T08:05:58;102154.16;;;13.12;100.00
59103;BME280;43999;51.660;5.616;2023-04-30T08:08:26;102156.00;;;13.09;100.00
59103;BME280;43999;51.660;5.616;2023-04-30T08:10:55;102165.56;;;13.12;100.00
59103;BME280;43999;51.660;5.616;2023-04-30T08:13:23;102159.09;;;13.19;100.00
59103;BME280;43999;51.660;5.616;2023-04-30T08:15:51;102161.19;;;13.32;100.00
59103;BME280;43999;51.660;5.616;2023-04-30T08:18:19;102168.63;;;13.42;100.00
59103;BME280;43999;51.660;5.616;2023-04-30T08:20:47;102172.22;;;13.60;100.00
59103;BME280;43999;51.660;5.616;2023-04-30T08:23:14;102179.00;;;13.85;100.00
59103;BME280;43999;51.660;5.616;2023-04-30T08:25:42;102176.47;;;14.20;100.00
59103;BME280;43999;51.660;5.616;2023-04-30T08:28:10;102186.31;;;14.53;100.00
59103;BME280;43999;51.660;5.616;2023-04-30T08:30:38;102177.78;;;14.84;100.00
59103;BME280;43999;51.660;5.616;2023-04-30T08:33:06;102178.69;;;15.18;99.99
59103;BME280;43999;51.660;5.616;2023-04-30T08:35:33;102172.88;;;15.45;98.51
59103;BME280;43999;51.660;5.616;2023-04-30T08:38:00;102176.50;;;15.76;95.08
59103;BME280;43999;51.660;5.616;2023-04-30T08:40:29;102176.69;;;16.05;92.95
59103;BME280;43999;51.660;5.616;2023-04-30T08:43:17;102173.56;;;16.30;90.13
59103;BME280;43999;51.660;5.616;2023-04-30T08:45:46;102168.81;;;16.51;89.20
59103;BME280;43999;51.660;5.616;2023-04-30T08:48:18;102170.03;;;16.76;90.42
59103;BME280;43999;51.660;5.616;2023-04-30T08:50:50;102167.75;;;17.00;87.42
59103;BME280;43999;51.660;5.616;2023-04-30T08:53:18;102165.50;;;17.23;86.15
59103;BME280;43999;51.660;5.616;2023-04-30T08:55:49;102169.75;;;17.39;84.27
59103;BME280;43999;51.660;5.616;2023-04-30T08:58:16;102156.13;;;17.46;85.18
59103;BME280;43999;51.660;5.616;2023-04-30T09:00:45;102162.75;;;17.82;81.63
59103;BME280;43999;51.660;5.616;2023-04-30T09:03:12;102166.31;;;17.95;80.50
59103;BME280;43999;51.660;5.616;2023-04-30T09:05:40;102167.53;;;18.04;81.16
59103;BME280;43999;51.660;5.616;2023-04-30T09:08:17;102155.19;;;18.17;78.34
59103;BME280;43999;51.660;5.616;2023-04-30T09:10:45;102160.34;;;18.33;77.46
59103;BME280;43999;51.660;5.616;2023-04-30T09:13:13;102164.41;;;18.39;76.16
59103;BME280;43999;51.660;5.616;2023-04-30T09:15:40;102164.44;;;18.52;72.58
59103;BME280;43999;51.660;5.616;2023-04-30T09:21:00;102154.78;;;18.63;73.67
59103;BME280;43999;51.660;5.616;2023-04-30T09:23:29;102150.28;;;18.91;71.99
59103;BME280;43999;51.660;5.616;2023-04-30T09:25:58;102154.44;;;18.95;72.11
59103;BME280;43999;51.660;5.616;2023-04-30T09:28:27;102150.31;;;19.04;73.15
59103;BME280;43999;51.660;5.616;2023-04-30T09:30:56;102146.38;;;19.23;73.48
59103;BME280;43999;51.660;5.616;2023-04-30T09:33:24;102148.44;;;19.56;70.78
59103;BME280;43999;51.660;5.616;2023-04-30T09:35:52;102138.00;;;19.79;69.59
59103;BME280;43999;51.660;5.616;2023-04-30T09:38:31;102148.88;;;20.00;64.13
59103;BME280;43999;51.660;5.616;2023-04-30T09:41:00;102143.44;;;20.01;65.33
59103;BME280;43999;51.660;5.616;2023-04-30T09:43:28;102138.66;;;19.94;66.31
59103;BME280;43999;51.660;5.616;2023-04-30T09:45:58;102137.88;;;20.04;66.41
59103;BME280;43999;51.660;5.616;2023-04-30T09:48:27;102136.19;;;20.28;64.44
59103;BME280;43999;51.660;5.616;2023-04-30T09:50:54;102127.97;;;20.31;61.21
59103;BME280;43999;51.660;5.616;2023-04-30T09:53:22;102131.03;;;20.37;60.62
59103;BME280;43999;51.660;5.616;2023-04-30T09:55:51;102140.88;;;20.48;59.77
59103;BME280;43999;51.660;5.616;2023-04-30T09:58:19;102125.03;;;20.58;58.70
59103;BME280;43999;51.660;5.616;2023-04-30T10:00:46;102122.25;;;20.59;58.94
59103;BME280;43999;51.660;5.616;2023-04-30T10:03:17;102120.31;;;20.62;58.79
59103;BME280;43999;51.660;5.616;2023-04-30T10:05:55;102123.31;;;20.70;59.19
59103;BME280;43999;51.660;5.616;2023-04-30T10:08:41;102118.69;;;20.83;57.40
59103;BME280;43999;51.660;5.616;2023-04-30T10:11:13;102112.41;;;20.84;57.59
59103;BME280;43999;51.660;5.616;2023-04-30T10:17:09;102111.56;;;21.18;55.84
59103;BME280;43999;51.660;5.616;2023-04-30T10:19:44;102115.34;;;21.26;56.36
59103;BME280;43999;51.660;5.616;2023-04-30T10:22:14;102104.91;;;21.35;57.82
59103;BME280;43999;51.660;5.616;2023-04-30T10:24:42;102112.69;;;21.49;56.19
59103;BME280;43999;51.660;5.616;2023-04-30T10:27:11;102105.63;;;21.59;55.81
59103;BME280;43999;51.660;5.616;2023-04-30T10:29:41;102109.88;;;21.62;54.00
59103;BME280;43999;51.660;5.616;2023-04-30T10:32:11;102111.09;;;21.69;54.60
59103;BME280;43999;51.660;5.616;2023-04-30T10:37:54;102105.19;;;21.98;55.06
59103;BME280;43999;51.660;5.616;2023-04-30T10:40:38;102098.66;;;22.23;54.94
59103;BME280;43999;51.660;5.616;2023-04-30T10:43:19;102094.31;;;22.43;52.57
59103;BME280;43999;51.660;5.616;2023-04-30T10:45:57;102082.81;;;22.64;52.44
59103;BME280;43999;51.660;5.616;2023-04-30T10:48:27;102085.34;;;22.65;52.02
59103;BME280;43999;51.660;5.616;2023-04-30T10:51:00;102083.63;;;22.64;51.32
59103;BME280;43999;51.660;5.616;2023-04-30T10:53:31;102087.88;;;22.67;50.14
59103;BME280;43999;51.660;5.616;2023-04-30T10:56:04;102082.72;;;22.75;49.60
59103;BME280;43999;51.660;5.616;2023-04-30T10:58:39;102080.53;;;22.38;51.08
59103;BME280;43999;51.660;5.616;2023-04-30T11:01:16;102071.09;;;22.23;52.00
59103;BME280;43999;51.660;5.616;2023-04-30T11:04:09;102070.00;;;22.25;52.50
59103;BME280;43999;51.660;5.616;2023-04-30T11:06:59;102081.63;;;22.03;51.72
59103;BME280;43999;51.660;5.616;2023-04-30T11:09:41;102077.47;;;21.78;53.95
59103;BME280;43999;51.660;5.616;2023-04-30T11:12:13;102060.81;;;21.85;55.52
59103;BME280;43999;51.660;5.616;2023-04-30T11:14:45;102064.78;;;22.24;53.42
59103;BME280;43999;51.660;5.616;2023-04-30T11:17:24;102059.59;;;22.64;51.94
59103;BME280;43999;51.660;5.616;2023-04-30T11:20:00;102052.16;;;22.99;50.71
59103;BME280;43999;51.660;5.616;2023-04-30T11:22:29;102060.63;;;23.04;50.40
59103;BME280;43999;51.660;5.616;2023-04-30T11:25:18;102052.00;;;22.90;49.43
59103;BME280;43999;51.660;5.616;2023-04-30T11:27:51;102048.94;;;22.74;52.36
59103;BME280;43999;51.660;5.616;2023-04-30T11:30:22;102039.38;;;22.41;52.43
59103;BME280;43999;51.660;5.616;2023-04-30T11:32:50;102043.66;;;21.99;53.14
59103;BME280;43999;51.660;5.616;2023-04-30T11:35:23;102038.56;;;22.08;53.86
59103;BME280;43999;51.660;5.616;2023-04-30T11:37:54;102042.47;;;22.25;53.01
59103;BME280;43999;51.660;5.616;2023-04-30T11:40:23;102020.97;;;22.26;53.25
59103;BME280;43999;51.660;5.616;2023-04-30T11:42:54;102033.50;;;21.93;50.57
59103;BME280;43999;51.660;5.616;2023-04-30T11:45:22;102034.13;;;21.42;52.78
59103;BME280;43999;51.660;5.616;2023-04-30T11:47:56;102024.31;;;21.42;52.84
59103;BME280;43999;51.660;5.616;2023-04-30T11:50:26;102019.91;;;21.64;54.38
59103;BME280;43999;51.660;5.616;2023-04-30T11:52:59;102012.03;;;21.74;52.94
59103;BME280;43999;51.660;5.616;2023-04-30T11:58:01;102004.84;;;21.19;54.09
59103;BME280;43999;51.660;5.616;2023-04-30T12:00:32;102011.50;;;21.25;54.08
59103;BME280;43999;51.660;5.616;2023-04-30T12:03:00;102012.97;;;21.29;52.15
59103;BME280;43999;51.660;5.616;2023-04-30T12:05:30;102013.09;;;21.05;53.78
59103;BME280;43999;51.660;5.616;2023-04-30T12:08:06;102000.38;;;20.63;55.16
59103;BME280;43999;51.660;5.616;2023-04-30T12:10:35;102006.63;;;20.28;56.74
59103;BME280;43999;51.660;5.616;2023-04-30T12:13:03;102014.56;;;20.17;57.08
59103;BME280;43999;51.660;5.616;2023-04-30T12:15:30;102010.47;;;20.13;54.37
59103;BME280;43999;51.660;5.616;2023-04-30T12:18:01;102005.91;;;19.91;53.97
59103;BME280;43999;51.660;5.616;2023-04-30T12:20:42;102000.66;;;19.78;55.67
59103;BME280;43999;51.660;5.616;2023-04-30T12:23:09;102000.19;;;19.84;55.97
59103;BME280;43999;51.660;5.616;2023-04-30T12:25:41;101993.56;;;19.90;55.14
59103;BME280;43999;51.660;5.616;2023-04-30T12:28:10;102007.09;;;19.86;54.51
59103;BME280;43999;51.660;5.616;2023-04-30T12:30:37;101990.81;;;19.91;53.52
59103;BME280;43999;51.660;5.616;2023-04-30T12:33:05;101990.72;;;20.04;55.43
59103;BME280;43999;51.660;5.616;2023-04-30T12:35:41;101987.84;;;20.18;53.38
59103;BME280;43999;51.660;5.616;2023-04-30T12:38:09;101999.13;;;20.33;51.73
59103;BME280;43999;51.660;5.616;2023-04-30T12:40:46;101987.41;;;20.36;51.56
59103;BME280;43999;51.660;5.616;2023-04-30T12:43:16;101985.41;;;20.15;52.06
59103;BME280;43999;51.660;5.616;2023-04-30T12:48:43;101972.75;;;20.30;52.99
59103;BME280;43999;51.660;5.616;2023-04-30T12:51:18;101978.59;;;20.58;52.41
59103;BME280;43999;51.660;5.616;2023-04-30T12:53:46;101961.19;;;20.65;54.27
59103;BME280;43999;51.660;5.616;2023-04-30T12:56:17;101963.50;;;20.81;53.66
59103;BME280;43999;51.660;5.616;2023-04-30T12:58:48;101973.28;;;20.69;53.71
59103;BME280;43999;51.660;5.616;2023-04-30T13:01:20;101980.75;;;20.41;52.88
59103;BME280;43999;51.660;5.616;2023-04-30T13:03:51;101977.06;;;20.09;53.58
59103;BME280;43999;51.660;5.616;2023-04-30T13:06:23;101969.88;;;19.86;54.29
59103;BME280;43999;51.660;5.616;2023-04-30T13:08:52;101968.94;;;19.75;55.19
59103;BME280;43999;51.660;5.616;2023-04-30T13:11:25;101965.44;;;19.74;54.63
59103;BME280;43999;51.660;5.616;2023-04-30T13:13:56;101958.31;;;20.10;55.76
59103;BME280;43999;51.660;5.616;2023-04-30T13:16:25;101954.88;;;20.66;51.27
59103;BME280;43999;51.660;5.616;2023-04-30T13:18:53;101958.03;;;20.83;52.04
59103;BME280;43999;51.660;5.616;2023-04-30T13:21:22;101951.00;;;20.82;52.36
59103;BME280;43999;51.660;5.616;2023-04-30T13:23:50;101946.28;;;20.74;52.33
59103;BME280;43999;51.660;5.616;2023-04-30T13:26:21;101941.31;;;20.92;52.39